createdAt,value
2019-05-07T00:01:02.706Z,5.80
2019-05-07T00:03:09.275Z,6.20
2019-05-07T00:05:16.148Z,6.10
2019-05-07T00:07:23.637Z,5.97
2019-05-07T00:09:32.146Z,5.20
2019-05-07T00:11:38.014Z,5.43
2019-05-07T00:13:44.631Z,5.43
2019-05-07T00:15:52.826Z,5.63
2019-05-07T00:17:59.131Z,5.70
2019-05-07T00:20:09.282Z,5.03
2019-05-07T00:22:15.647Z,5.93
2019-05-07T00:24:23.455Z,5.97
2019-05-07T00:26:32.058Z,5.33
2019-05-07T00:28:39.534Z,5.50
2019-05-07T00:30:45.918Z,4.87
2019-05-07T00:32:53.720Z,5.40
2019-05-07T00:35:04.679Z,5.13
2019-05-07T00:37:18.927Z,4.20
2019-05-07T00:39:42.499Z,5.27
2019-05-07T00:41:57.964Z,5.27
2019-05-07T00:44:06.294Z,4.77
2019-05-07T00:46:14.180Z,5.07
2019-05-07T00:48:23.469Z,4.93
2019-05-07T00:50:34.662Z,5.57
2019-05-07T00:52:43.007Z,3.97
2019-05-07T00:54:50.470Z,4.50
2019-05-07T00:56:56.927Z,4.50
2019-05-07T00:59:03.412Z,5.10
2019-05-07T01:01:10.281Z,4.90
2019-05-07T01:03:16.741Z,4.70
2019-05-07T01:05:23.258Z,5.27
2019-05-07T01:07:29.780Z,4.90
2019-05-07T01:09:36.131Z,4.93
2019-05-07T01:11:43.010Z,4.90
2019-05-07T01:13:49.368Z,4.10
2019-05-07T01:15:57.384Z,5.67
2019-05-07T01:18:03.734Z,5.37
2019-05-07T01:20:12.428Z,4.20
2019-05-07T01:22:18.629Z,5.17
2019-05-07T01:24:24.869Z,4.10
2019-05-07T01:26:33.101Z,4.40
2019-05-07T01:28:58.083Z,4.73
2019-05-07T01:31:04.758Z,4.20
2019-05-07T01:33:12.752Z,4.53
2019-05-07T01:35:23.519Z,4.30
2019-05-07T01:37:32.052Z,4.67
2019-05-07T01:39:38.081Z,5.00
2019-05-07T01:41:45.985Z,4.37
2019-05-07T01:43:52.661Z,3.83
2019-05-07T01:45:59.029Z,4.07
2019-05-07T01:48:05.882Z,3.70
2019-05-07T01:50:13.354Z,4.07
2019-05-07T01:52:19.728Z,5.23
2019-05-07T01:54:26.218Z,4.17
2019-05-07T01:56:33.153Z,4.50
2019-05-07T01:58:42.337Z,4.40
2019-05-07T02:00:48.058Z,4.43
2019-05-07T02:02:58.924Z,5.17
2019-05-07T02:05:26.295Z,4.67
2019-05-07T02:07:34.387Z,4.73
2019-05-07T02:09:48.735Z,5.27
2019-05-07T02:12:02.441Z,4.80
2019-05-07T02:14:08.538Z,4.83
2019-05-07T02:16:14.890Z,4.60
2019-05-07T02:18:21.821Z,4.77
2019-05-07T02:20:28.232Z,5.20
2019-05-07T02:22:34.603Z,5.20
2019-05-07T02:24:43.374Z,5.30
2019-05-07T02:26:52.021Z,5.47
2019-05-07T02:28:57.906Z,4.93
2019-05-07T02:31:05.177Z,5.10
2019-05-07T02:33:13.760Z,5.33
2019-05-07T02:35:19.950Z,5.33
2019-05-07T02:37:35.769Z,7.17
2019-05-07T02:39:40.441Z,5.10
2019-05-07T02:41:54.239Z,5.17
2019-05-07T02:44:03.184Z,5.13
2019-05-07T02:46:22.521Z,5.63
2019-05-07T02:48:23.663Z,5.13
2019-05-07T02:50:33.008Z,5.23
2019-05-07T02:52:58.755Z,5.47
2019-05-07T02:55:13.158Z,6.20
2019-05-07T02:57:24.079Z,6.03
2019-05-07T02:59:33.528Z,6.10
2019-05-07T03:01:42.998Z,6.30
2019-05-07T03:03:52.650Z,6.03
2019-05-07T03:06:02.893Z,4.53
2019-05-07T03:08:13.244Z,5.10
2019-05-07T03:10:23.746Z,5.93
2019-05-07T03:12:33.476Z,5.33
2019-05-07T03:14:38.938Z,5.13
2019-05-07T03:16:49.366Z,5.50
2019-05-07T03:18:56.900Z,5.37
2019-05-07T03:21:16.997Z,5.70
2019-05-07T03:23:28.486Z,5.43
2019-05-07T03:25:54.157Z,5.33
2019-05-07T03:28:00.440Z,6.30
2019-05-07T03:30:17.329Z,5.70
2019-05-07T03:32:27.328Z,5.47
2019-05-07T03:34:46.543Z,5.20
2019-05-07T03:36:56.541Z,5.57
2019-05-07T03:39:03.302Z,5.77
2019-05-07T03:41:09.305Z,5.67
2019-05-07T03:43:15.812Z,5.00
2019-05-07T03:45:26.669Z,5.70
2019-05-07T03:47:34.883Z,5.23
2019-05-07T03:49:42.977Z,4.37
2019-05-07T03:51:52.881Z,4.80
2019-05-07T03:53:58.257Z,4.60
2019-05-07T03:56:04.944Z,4.67
2019-05-07T03:58:14.564Z,5.10
2019-05-07T04:00:23.932Z,4.50
2019-05-07T04:02:32.891Z,4.97
2019-05-07T04:04:37.766Z,4.53
2019-05-07T04:06:44.717Z,4.73
2019-05-07T04:08:53.146Z,4.50
2019-05-07T04:10:59.182Z,4.40
2019-05-07T04:13:06.070Z,4.40
2019-05-07T04:15:14.140Z,4.80
2019-05-07T04:17:25.613Z,4.30
2019-05-07T04:19:28.934Z,5.23
2019-05-07T04:21:35.335Z,5.43
2019-05-07T04:23:43.639Z,4.73
2019-05-07T04:25:54.698Z,4.57
2019-05-07T04:28:18.648Z,5.03
2019-05-07T04:30:25.621Z,4.87
2019-05-07T04:32:33.619Z,4.87
2019-05-07T04:34:59.062Z,5.17
2019-05-07T04:37:06.899Z,5.03
2019-05-07T04:39:13.541Z,5.33
2019-05-07T04:41:23.012Z,5.43
2019-05-07T04:43:27.893Z,5.53
2019-05-07T04:45:34.426Z,4.90
2019-05-07T04:47:44.313Z,5.27
2019-05-07T04:49:49.417Z,4.97
2019-05-07T04:51:57.336Z,5.77
2019-05-07T04:54:04.175Z,5.87
2019-05-07T04:56:13.847Z,5.80
2019-05-07T04:58:23.322Z,4.93
2019-05-07T05:00:28.907Z,4.90
2019-05-07T05:02:34.975Z,5.20
2019-05-07T05:04:43.656Z,5.23
2019-05-07T05:06:52.854Z,4.30
2019-05-07T05:08:59.109Z,5.40
2019-05-07T05:11:05.530Z,5.47
2019-05-07T05:13:12.888Z,4.90
2019-05-07T05:15:22.178Z,4.97
2019-05-07T05:17:28.916Z,5.27
2019-05-07T05:19:35.174Z,5.23
2019-05-07T05:21:43.196Z,5.20
2019-05-07T05:23:54.449Z,4.40
2019-05-07T05:26:01.953Z,4.83
2019-05-07T05:28:12.378Z,3.83
2019-05-07T05:30:22.013Z,4.67
2019-05-07T05:32:28.596Z,5.13
2019-05-07T05:34:34.993Z,5.60
2019-05-07T05:36:42.514Z,5.00
2019-05-07T05:38:49.248Z,6.23
2019-05-07T05:40:57.453Z,4.37
2019-05-07T05:43:06.937Z,5.67
2019-05-07T05:45:33.352Z,5.33
2019-05-07T05:47:42.824Z,5.07
2019-05-07T05:49:47.676Z,5.03
2019-05-07T05:52:04.093Z,6.00
2019-05-07T05:54:28.265Z,5.23
2019-05-07T05:56:42.702Z,6.17
2019-05-07T05:59:06.804Z,4.40
2019-05-07T06:01:16.432Z,5.27
2019-05-07T06:03:43.058Z,4.93
2019-05-07T06:05:52.259Z,4.97
2019-05-07T06:08:05.929Z,5.83
2019-05-07T06:10:23.577Z,3.93
2019-05-07T06:12:42.852Z,5.03
2019-05-07T06:14:57.062Z,5.07
2019-05-07T06:17:22.376Z,4.97
2019-05-07T06:19:33.366Z,4.33
2019-05-07T06:21:59.289Z,4.57
2019-05-07T06:24:07.166Z,3.67
2019-05-07T06:26:14.756Z,4.40
2019-05-07T06:28:22.342Z,5.47
2019-05-07T06:30:28.911Z,5.17
2019-05-07T06:32:36.616Z,3.70
2019-05-07T06:34:44.727Z,4.40
2019-05-07T06:36:52.668Z,4.53
2019-05-07T06:39:01.935Z,4.13
2019-05-07T06:41:17.436Z,3.70
2019-05-07T06:43:25.636Z,3.27
2019-05-07T06:45:35.424Z,3.20
2019-05-07T06:47:43.149Z,2.93
2019-05-07T06:49:52.321Z,3.20
2019-05-07T06:51:58.877Z,2.73
2019-05-07T06:54:05.328Z,2.80
2019-05-07T06:56:12.205Z,2.37
2019-05-07T06:58:18.570Z,2.97
2019-05-07T07:00:26.988Z,2.03
2019-05-07T07:02:44.387Z,2.43
2019-05-07T07:04:52.304Z,1.87
2019-05-07T07:07:01.925Z,2.10
2019-05-07T07:09:22.092Z,2.00
2019-05-07T07:11:32.342Z,1.70
2019-05-07T07:13:39.117Z,2.20
2019-05-07T07:15:45.511Z,1.67
2019-05-07T07:17:52.393Z,1.90
2019-05-07T07:19:58.947Z,2.07
2019-05-07T07:22:05.328Z,1.60
2019-05-07T07:24:12.701Z,1.70
2019-05-07T07:26:19.163Z,1.30
2019-05-07T07:28:25.528Z,1.90
2019-05-07T07:30:33.546Z,1.93
2019-05-07T07:32:42.769Z,2.27
2019-05-07T07:34:53.085Z,1.73
2019-05-07T07:37:12.842Z,3.00
2019-05-07T07:39:18.990Z,3.50
2019-05-07T07:41:28.351Z,1.83
2019-05-07T07:43:34.665Z,1.40
2019-05-07T07:45:42.016Z,1.57
2019-05-07T07:47:49.409Z,1.80
2019-05-07T07:49:56.018Z,1.50
2019-05-07T07:52:03.282Z,1.53
2019-05-07T07:54:09.752Z,1.83
2019-05-07T07:56:23.706Z,1.57
2019-05-07T07:58:34.161Z,2.30
2019-05-07T08:00:54.286Z,1.70
2019-05-07T08:03:02.486Z,1.80
2019-05-07T08:05:12.575Z,1.30
2019-05-07T08:07:19.183Z,1.70
2019-05-07T08:09:25.959Z,1.67
2019-05-07T08:11:32.592Z,1.80
2019-05-07T08:13:39.024Z,1.50
2019-05-07T08:15:46.663Z,2.27
2019-05-07T08:17:53.253Z,1.50
2019-05-07T08:19:59.765Z,2.03
2019-05-07T08:22:06.730Z,1.00
2019-05-07T08:24:13.370Z,2.07
2019-05-07T08:26:21.886Z,1.70
2019-05-07T08:28:28.643Z,2.37
2019-05-07T08:30:35.522Z,1.73
2019-05-07T08:32:44.051Z,1.10
2019-05-07T08:35:07.582Z,2.50
2019-05-07T08:37:14.633Z,1.50
2019-05-07T08:39:25.110Z,1.73
2019-05-07T08:41:31.958Z,1.30
2019-05-07T08:43:39.303Z,1.47
2019-05-07T08:46:03.831Z,1.53
2019-05-07T08:48:13.403Z,1.57
2019-05-07T08:50:19.864Z,1.53
2019-05-07T08:52:26.610Z,1.17
2019-05-07T08:54:34.663Z,1.77
2019-05-07T08:56:44.411Z,1.13
2019-05-07T08:58:52.630Z,1.87
2019-05-07T09:00:59.622Z,1.63
2019-05-07T09:03:19.123Z,1.30
2019-05-07T09:05:14.642Z,1.57
2019-05-07T09:07:21.982Z,1.30
2019-05-07T09:09:29.572Z,1.40
2019-05-07T09:11:36.162Z,1.97
2019-05-07T09:13:42.867Z,1.70
2019-05-07T09:15:49.314Z,1.30
2019-05-07T09:17:56.274Z,1.43
2019-05-07T09:20:03.528Z,1.17
2019-05-07T09:22:12.523Z,1.57
2019-05-07T09:24:18.332Z,1.10
2019-05-07T09:26:26.479Z,1.37
2019-05-07T09:28:34.882Z,0.90
2019-05-07T09:30:52.495Z,1.43
2019-05-07T09:33:02.475Z,1.40
2019-05-07T09:35:12.480Z,1.33
2019-05-07T09:37:32.763Z,1.60
2019-05-07T09:39:39.342Z,1.40
2019-05-07T09:41:46.263Z,1.70
2019-05-07T09:43:52.783Z,1.00
2019-05-07T09:45:59.262Z,1.27
2019-05-07T09:48:06.482Z,1.30
2019-05-07T09:50:13.826Z,1.17
2019-05-07T09:52:22.682Z,1.67
2019-05-07T09:54:29.122Z,1.77
2019-05-07T09:56:37.102Z,1.87
2019-05-07T09:58:44.081Z,1.30
2019-05-07T10:00:52.303Z,1.00
2019-05-07T10:02:58.888Z,1.40
2019-05-07T10:05:07.082Z,0.70
2019-05-07T10:07:15.482Z,1.03
2019-05-07T10:09:22.360Z,1.43
2019-05-07T10:11:47.329Z,0.93
2019-05-07T10:14:04.268Z,1.00
2019-05-07T10:16:12.767Z,1.00
2019-05-07T10:18:20.118Z,0.83
2019-05-07T10:20:27.965Z,1.20
2019-05-07T10:22:34.334Z,1.20
2019-05-07T10:24:42.904Z,0.90
2019-05-07T10:26:50.093Z,0.53
2019-05-07T10:29:04.326Z,1.50
2019-05-07T10:31:11.041Z,0.90
2019-05-07T10:33:18.062Z,1.03
2019-05-07T10:35:26.194Z,1.03
2019-05-07T10:37:35.323Z,0.73
2019-05-07T10:39:43.041Z,0.97
2019-05-07T10:41:49.850Z,0.87
2019-05-07T10:43:58.089Z,0.83
2019-05-07T10:46:24.384Z,0.90
2019-05-07T10:48:37.203Z,0.70
2019-05-07T10:50:45.882Z,1.17
2019-05-07T10:52:53.182Z,1.10
2019-05-07T10:55:00.034Z,1.07
2019-05-07T10:57:07.603Z,1.20
2019-05-07T10:59:14.008Z,0.90
2019-05-07T11:01:22.470Z,0.80
2019-05-07T11:03:29.272Z,1.07
2019-05-07T11:05:36.139Z,1.20
2019-05-07T11:07:43.070Z,0.90
2019-05-07T11:09:52.492Z,1.17
2019-05-07T11:11:59.262Z,1.03
2019-05-07T11:14:05.961Z,0.63
2019-05-07T11:16:14.162Z,1.07
2019-05-07T11:18:22.242Z,0.97
2019-05-07T11:20:28.722Z,1.37
2019-05-07T11:22:36.687Z,0.67
2019-05-07T11:24:43.150Z,0.90
2019-05-07T11:26:49.562Z,0.57
2019-05-07T11:28:56.082Z,0.43
2019-05-07T11:31:02.504Z,0.60
2019-05-07T11:33:08.778Z,0.70
2019-05-07T11:35:15.484Z,0.60
2019-05-07T11:37:23.547Z,0.93
2019-05-07T11:39:29.911Z,0.33
2019-05-07T11:41:37.842Z,1.20
2019-05-07T11:43:45.402Z,0.57
2019-05-07T11:45:58.838Z,0.60
2019-05-07T11:48:04.598Z,0.90
2019-05-07T11:50:14.376Z,1.57
2019-05-07T11:52:22.747Z,0.70
2019-05-07T11:54:32.022Z,0.90
2019-05-07T11:56:42.250Z,0.60
2019-05-07T11:58:50.725Z,5.57
2019-05-07T12:01:04.903Z,0.70
2019-05-07T12:03:11.372Z,0.60
2019-05-07T12:05:19.403Z,0.80
2019-05-07T12:07:25.805Z,0.70
2019-05-07T12:09:33.321Z,0.70
2019-05-07T12:11:40.003Z,1.00
2019-05-07T12:13:46.682Z,0.90
2019-05-07T12:15:53.342Z,0.50
2019-05-07T12:18:02.773Z,0.70
2019-05-07T12:20:09.022Z,0.83
2019-05-07T12:22:17.222Z,0.80
2019-05-07T12:24:24.042Z,0.90
2019-05-07T12:26:32.122Z,0.70
2019-05-07T12:28:41.880Z,0.67
2019-05-07T12:30:51.629Z,1.00
2019-05-07T12:33:03.718Z,0.97
2019-05-07T12:35:12.708Z,1.57
2019-05-07T12:37:22.426Z,0.60
2019-05-07T12:39:28.522Z,0.77
2019-05-07T12:41:35.071Z,0.60
2019-05-07T12:43:42.340Z,0.80
2019-05-07T12:45:48.827Z,0.90
2019-05-07T12:47:55.578Z,1.00
2019-05-07T12:50:03.151Z,0.60
2019-05-07T12:52:20.242Z,0.73
2019-05-07T12:54:34.720Z,0.70
2019-05-07T12:56:42.517Z,0.60
2019-05-07T12:58:48.804Z,1.13
2019-05-07T13:00:56.615Z,0.50
2019-05-07T13:03:07.963Z,1.50
2019-05-07T13:05:15.662Z,0.90
2019-05-07T13:07:22.030Z,1.30
2019-05-07T13:09:28.481Z,0.70
2019-05-07T13:11:35.337Z,0.77
2019-05-07T13:13:43.322Z,0.77
2019-05-07T13:15:51.812Z,0.80
2019-05-07T13:18:02.814Z,0.50
2019-05-07T13:20:12.058Z,0.77
2019-05-07T13:22:21.952Z,0.73
2019-05-07T13:24:28.841Z,0.80
2019-05-07T13:26:39.621Z,1.10
2019-05-07T13:28:49.123Z,0.90
2019-05-07T13:30:58.102Z,0.63
2019-05-07T13:33:06.445Z,1.13
2019-05-07T13:35:13.801Z,1.07
2019-05-07T13:37:25.009Z,1.87
2019-05-07T13:39:42.992Z,0.90
2019-05-07T13:41:55.882Z,0.83
2019-05-07T13:44:07.222Z,1.43
2019-05-07T13:46:15.530Z,2.33
2019-05-07T13:48:23.705Z,1.10
2019-05-07T13:50:32.536Z,0.90
2019-05-07T13:52:39.422Z,0.77
2019-05-07T13:54:46.242Z,0.70
2019-05-07T13:56:54.142Z,0.93
2019-05-07T13:59:04.980Z,1.20
2019-05-07T14:01:23.082Z,1.53
2019-05-07T14:03:32.910Z,0.60
2019-05-07T14:05:39.800Z,0.87
2019-05-07T14:07:46.449Z,0.73
2019-05-07T14:09:55.008Z,0.87
2019-05-07T14:12:03.909Z,0.80
2019-05-07T14:14:12.141Z,0.77
2019-05-07T14:16:18.301Z,0.67
2019-05-07T14:18:25.796Z,0.70
2019-05-07T14:20:33.138Z,0.83
2019-05-07T14:22:42.456Z,0.90
2019-05-07T14:24:52.890Z,1.10
2019-05-07T14:27:02.007Z,1.43
2019-05-07T14:29:08.722Z,1.63
2019-05-07T14:31:16.888Z,1.00
2019-05-07T14:33:40.589Z,0.73
2019-05-07T14:35:48.885Z,1.07
2019-05-07T14:38:07.022Z,1.40
2019-05-07T14:40:14.382Z,0.60
2019-05-07T14:42:22.690Z,0.83
2019-05-07T14:44:52.636Z,1.00
2019-05-07T14:46:59.022Z,1.00
2019-05-07T14:49:07.102Z,1.00
2019-05-07T14:51:13.682Z,0.90
2019-05-07T14:53:22.234Z,0.70
2019-05-07T14:55:28.314Z,1.77
2019-05-07T14:57:36.242Z,0.77
2019-05-07T14:59:43.452Z,0.90
2019-05-07T15:01:52.089Z,1.17
2019-05-07T15:03:58.662Z,0.77
2019-05-07T15:06:05.202Z,1.03
2019-05-07T15:08:14.296Z,2.17
2019-05-07T15:10:22.200Z,1.20
2019-05-07T15:12:29.882Z,1.10
2019-05-07T15:14:37.242Z,1.07
2019-05-07T15:16:44.222Z,1.00
2019-05-07T15:18:53.071Z,0.97
2019-05-07T15:21:01.891Z,1.43
2019-05-07T15:23:13.363Z,1.17
2019-05-07T15:25:20.198Z,1.07
2019-05-07T15:27:26.842Z,0.80
2019-05-07T15:29:33.482Z,0.63
2019-05-07T15:31:42.365Z,0.70
2019-05-07T15:33:49.444Z,0.63
2019-05-07T15:35:56.322Z,0.90
2019-05-07T15:38:04.622Z,1.10
2019-05-07T15:40:12.576Z,0.90
2019-05-07T15:42:22.292Z,0.90
2019-05-07T15:44:29.582Z,0.97
2019-05-07T15:46:36.270Z,0.93
2019-05-07T15:48:42.786Z,0.90
2019-05-07T15:50:49.330Z,0.70
2019-05-07T15:53:02.170Z,1.10
2019-05-07T15:55:08.910Z,0.80
2019-05-07T15:57:24.550Z,1.23
2019-05-07T15:59:32.587Z,0.93
2019-05-07T16:01:39.304Z,0.70
2019-05-07T16:03:47.843Z,1.07
2019-05-07T16:05:54.542Z,1.33
2019-05-07T16:08:01.723Z,1.13
2019-05-07T16:10:09.603Z,1.07
2019-05-07T16:12:17.762Z,1.20
2019-05-07T16:14:26.741Z,1.30
2019-05-07T16:16:34.830Z,0.50
2019-05-07T16:18:58.900Z,0.80
2019-05-07T16:21:05.363Z,1.10
2019-05-07T16:23:15.724Z,0.90
2019-05-07T16:25:22.345Z,1.20
2019-05-07T16:27:28.882Z,0.63
2019-05-07T16:29:35.950Z,1.30
2019-05-07T16:31:44.161Z,1.00
2019-05-07T16:33:52.124Z,1.47
2019-05-07T16:36:01.974Z,1.33
2019-05-07T16:38:08.122Z,1.20
2019-05-07T16:40:15.684Z,1.10
2019-05-07T16:42:22.410Z,1.23
2019-05-07T16:44:29.463Z,1.20
2019-05-07T16:46:36.199Z,1.20
2019-05-07T16:48:43.958Z,0.93
2019-05-07T16:50:52.299Z,1.00
2019-05-07T16:52:59.291Z,1.30
2019-05-07T16:55:07.843Z,1.10
2019-05-07T16:57:24.583Z,0.90
2019-05-07T16:59:32.339Z,0.93
2019-05-07T17:01:39.663Z,1.13
2019-05-07T17:03:48.185Z,0.70
2019-05-07T17:05:54.730Z,0.97
2019-05-07T17:08:02.479Z,1.17
2019-05-07T17:10:11.719Z,1.20
2019-05-07T17:12:22.035Z,0.77
2019-05-07T17:14:29.403Z,1.50
2019-05-07T17:16:37.526Z,1.43
2019-05-07T17:18:44.202Z,1.03
2019-05-07T17:20:52.267Z,0.80
2019-05-07T17:22:59.303Z,1.40
2019-05-07T17:25:28.282Z,1.40
2019-05-07T17:27:35.890Z,1.30
2019-05-07T17:29:43.013Z,1.63
2019-05-07T17:31:49.903Z,1.50
2019-05-07T17:33:56.639Z,1.30
2019-05-07T17:36:04.651Z,1.50
2019-05-07T17:38:12.945Z,1.03
2019-05-07T17:40:19.806Z,1.37
2019-05-07T17:42:26.842Z,0.97
2019-05-07T17:44:34.982Z,1.20
2019-05-07T17:46:42.907Z,1.20
2019-05-07T17:48:49.822Z,1.10
2019-05-07T17:50:57.982Z,1.30
2019-05-07T17:53:04.983Z,1.53
2019-05-07T17:55:13.052Z,1.40
2019-05-07T17:57:20.091Z,2.00
2019-05-07T17:59:27.130Z,1.70
2019-05-07T18:01:35.582Z,1.77
2019-05-07T18:03:43.365Z,2.33
2019-05-07T18:05:51.833Z,1.67
2019-05-07T18:07:58.502Z,1.40
2019-05-07T18:10:05.595Z,1.90
2019-05-07T18:12:12.929Z,1.90
2019-05-07T18:14:22.818Z,2.10
2019-05-07T18:16:35.370Z,1.90
2019-05-07T18:18:43.245Z,1.77
2019-05-07T18:20:50.229Z,1.73
2019-05-07T18:22:58.603Z,1.77
2019-05-07T18:25:07.569Z,1.77
2019-05-07T18:27:16.057Z,1.57
2019-05-07T18:29:24.862Z,1.97
2019-05-07T18:31:34.709Z,1.20
2019-05-07T18:33:56.529Z,1.63
2019-05-07T18:36:03.662Z,1.83
2019-05-07T18:38:10.462Z,1.37
2019-05-07T18:40:16.970Z,1.40
2019-05-07T18:42:23.642Z,2.00
2019-05-07T18:44:31.582Z,1.87
2019-05-07T18:46:38.523Z,1.93
2019-05-07T18:48:45.104Z,1.67
2019-05-07T18:50:52.261Z,2.03
2019-05-07T18:52:58.969Z,1.60
2019-05-07T18:55:09.034Z,2.13
2019-05-07T18:57:16.008Z,2.10
2019-05-07T18:59:24.625Z,2.50
2019-05-07T19:01:35.291Z,2.70
2019-05-07T19:03:42.288Z,2.70
2019-05-07T19:05:52.020Z,3.93
2019-05-07T19:08:05.371Z,11.07
2019-05-07T19:10:09.055Z,15.17
2019-05-07T19:12:16.675Z,18.47
2019-05-07T19:14:24.175Z,21.40
2019-05-07T19:16:32.513Z,19.20
2019-05-07T19:18:39.501Z,17.50
2019-05-07T19:20:49.701Z,20.00
2019-05-07T19:22:57.037Z,19.87
2019-05-07T19:25:07.130Z,21.93
2019-05-07T19:27:15.546Z,20.67
2019-05-07T19:29:23.577Z,21.00
2019-05-07T19:31:33.967Z,13.13
2019-05-07T19:33:42.050Z,9.60
2019-05-07T19:35:52.779Z,10.03
2019-05-07T19:38:02.931Z,11.70
2019-05-07T19:40:12.537Z,10.77
2019-05-07T19:42:21.161Z,8.70
2019-05-07T19:44:29.730Z,8.07
2019-05-07T19:46:36.708Z,8.10
2019-05-07T19:48:45.615Z,9.10
2019-05-07T19:50:52.879Z,7.93
2019-05-07T19:53:00.025Z,6.53
2019-05-07T19:55:10.503Z,7.10
2019-05-07T19:57:22.995Z,7.20
2019-05-07T19:59:32.544Z,6.03
2019-05-07T20:01:42.643Z,5.80
2019-05-07T20:03:53.223Z,6.33
2019-05-07T20:06:04.463Z,8.00
2019-05-07T20:08:12.730Z,8.00
2019-05-07T20:10:25.356Z,9.60
2019-05-07T20:12:36.712Z,10.57
2019-05-07T20:14:46.680Z,8.30
2019-05-07T20:16:57.140Z,8.83
2019-05-07T20:19:07.194Z,9.40
2019-05-07T20:21:16.943Z,8.53
2019-05-07T20:23:24.006Z,9.10
2019-05-07T20:25:33.324Z,10.17
2019-05-07T20:27:43.458Z,8.93
2019-05-07T20:29:52.232Z,9.73
2019-05-07T20:31:59.806Z,9.93
2019-05-07T20:34:07.965Z,9.23
2019-05-07T20:36:16.650Z,9.03
2019-05-07T20:38:26.730Z,10.33
2019-05-07T20:40:36.145Z,9.43
2019-05-07T20:42:43.306Z,11.13
2019-05-07T20:44:51.972Z,10.17
2019-05-07T20:47:01.690Z,10.93
2019-05-07T20:49:09.487Z,12.67
2019-05-07T20:51:17.035Z,10.87
2019-05-07T20:53:43.495Z,10.40
2019-05-07T20:55:54.135Z,11.20
2019-05-07T20:58:03.465Z,10.67
2019-05-07T21:00:15.253Z,9.87
2019-05-07T21:02:23.158Z,14.73
2019-05-07T21:04:32.840Z,18.17
2019-05-07T21:06:39.958Z,20.83
2019-05-07T21:08:47.085Z,22.07
2019-05-07T21:10:53.957Z,20.97
2019-05-07T21:13:02.027Z,21.47
2019-05-07T21:15:09.225Z,21.03
2019-05-07T21:17:16.079Z,21.77
2019-05-07T21:19:23.716Z,23.37
2019-05-07T21:21:32.549Z,23.63
2019-05-07T21:23:38.974Z,25.53
2019-05-07T21:25:46.220Z,30.80
2019-05-07T21:27:53.200Z,25.87
2019-05-07T21:30:02.330Z,21.73
2019-05-07T21:32:08.267Z,21.40
2019-05-07T21:34:16.410Z,23.87
2019-05-07T21:36:23.293Z,22.53
2019-05-07T21:38:30.025Z,22.70
2019-05-07T21:40:38.287Z,22.50
2019-05-07T21:42:46.611Z,23.53
2019-05-07T21:44:53.483Z,22.83
2019-05-07T21:47:01.737Z,23.90
2019-05-07T21:49:07.959Z,25.60
2019-05-07T21:51:14.526Z,24.60
2019-05-07T21:53:34.402Z,24.20
2019-05-07T21:56:02.524Z,24.93
2019-05-07T21:58:16.789Z,24.97
2019-05-07T22:00:32.681Z,24.57
2019-05-07T22:02:42.339Z,23.30
2019-05-07T22:04:48.890Z,21.37
2019-05-07T22:06:56.388Z,20.10
2019-05-07T22:09:03.566Z,18.10
2019-05-07T22:11:13.403Z,19.17
2019-05-07T22:13:22.015Z,19.47
2019-05-07T22:15:28.085Z,19.90
2019-05-07T22:17:34.547Z,19.43
2019-05-07T22:19:42.666Z,17.57
2019-05-07T22:21:52.169Z,19.33
2019-05-07T22:23:58.346Z,17.67
2019-05-07T22:26:19.214Z,16.47
2019-05-07T22:28:13.452Z,18.43
2019-05-07T22:30:34.116Z,19.03
2019-05-07T22:32:55.569Z,18.07
2019-05-07T22:35:07.439Z,16.40
2019-05-07T22:37:15.850Z,17.83
2019-05-07T22:39:29.814Z,17.80
2019-05-07T22:41:39.585Z,18.97
2019-05-07T22:43:46.845Z,19.90
2019-05-07T22:45:53.522Z,18.30
2019-05-07T22:48:00.162Z,19.07
2019-05-07T22:50:07.662Z,18.00
2019-05-07T22:52:14.107Z,18.60
2019-05-07T22:54:22.556Z,18.10
2019-05-07T22:56:37.323Z,18.43
2019-05-07T22:58:56.541Z,18.70
2019-05-07T23:01:05.275Z,18.27
2019-05-07T23:03:12.483Z,17.67
2019-05-07T23:05:19.332Z,18.57
2019-05-07T23:07:26.502Z,18.53
2019-05-07T23:09:33.065Z,18.33
2019-05-07T23:11:40.872Z,18.27
2019-05-07T23:13:48.942Z,18.17
2019-05-07T23:15:55.651Z,18.43
2019-05-07T23:18:04.092Z,17.27
2019-05-07T23:20:10.223Z,18.83
2019-05-07T23:22:16.998Z,17.13
2019-05-07T23:24:25.916Z,16.73
2019-05-07T23:28:44.176Z,16.63
2019-05-07T23:30:51.940Z,16.97
2019-05-07T23:32:58.331Z,15.33
2019-05-07T23:35:05.113Z,13.87
2019-05-07T23:37:11.841Z,13.13
2019-05-07T23:39:20.085Z,14.27
2019-05-07T23:41:28.082Z,14.07
2019-05-07T23:43:34.643Z,14.13
2019-05-07T23:45:42.078Z,12.90
2019-05-07T23:47:48.502Z,12.07
2019-05-07T23:49:54.944Z,10.23
2019-05-07T23:52:02.416Z,9.80
2019-05-07T23:54:12.154Z,9.70
2019-05-07T23:56:22.045Z,10.70
2019-05-07T23:58:32.661Z,9.30
